Time;durP1;ratioP1;P1;durP2;ratioP2;P2;SDS_P1;SDS_P2;PMS_P1;PMS_P2;Temp;Humidity;BMP_temperature;BMP_pressure;BME280_temperature;BME280_humidity;BME280_pressure;Samples;Min_cycle;Max_cycle;Signal;HPM_P1;HPM_P2
2023/05/13 00:01:59;;;;;;;2.10;2.00;;;;;;;;;;5051875;28;20198;-27
2023/05/13 00:04:27;;;;;;;2.37;2.23;;;;;;;;;;5059464;28;20224;-29
2023/05/13 00:06:55;;;;;;;2.63;2.30;;;;;;;;;;5052192;28;20217;-27
2023/05/13 00:09:22;;;;;;;2.20;2.10;;;;;;;;;;5047377;28;20204;-29
2023/05/13 00:11:49;;;;;;;3.17;1.90;;;;;;;;;;5048767;28;20292;-26
2023/05/13 00:14:16;;;;;;;2.90;2.60;;;;;;;;;;5321749;22;20233;-31
2023/05/13 00:16:44;;;;;;;4.50;2.20;;;;;;;;;;5016726;28;20228;-29
2023/05/13 00:19:11;;;;;;;2.90;2.43;;;;;;;;;;5016324;28;20203;-30
2023/05/13 00:21:38;;;;;;;1.73;1.63;;;;;;;;;;5031578;28;20257;-32
2023/05/13 00:24:07;;;;;;;2.03;1.83;;;;;;;;;;5023190;28;20236;-32
2023/05/13 00:26:34;;;;;;;2.70;2.20;;;;;;;;;;5027344;28;20233;-34
2023/05/13 00:29:01;;;;;;;2.33;1.87;;;;;;;;;;5011711;28;20209;-32
2023/05/13 00:31:28;;;;;;;1.83;1.73;;;;;;;;;;5022005;28;20209;-32
2023/05/13 00:33:55;;;;;;;2.73;1.93;;;;;;;;;;5029742;28;20199;-33
2023/05/13 00:36:22;;;;;;;1.93;1.83;;;;;;;;;;5030646;28;20244;-33
2023/05/13 00:38:49;;;;;;;1.80;1.70;;;;;;;;;;5023081;28;20303;-34
2023/05/13 00:41:18;;;;;;;1.80;1.70;;;;;;;;;;5017580;28;20215;-30
2023/05/13 00:43:45;;;;;;;1.77;1.67;;;;;;;;;;5018957;28;20300;-31
2023/05/13 00:46:12;;;;;;;1.90;1.70;;;;;;;;;;5021063;28;20219;-33
2023/05/13 00:48:39;;;;;;;1.67;1.57;;;;;;;;;;5030306;28;20219;-33
2023/05/13 00:51:07;;;;;;;2.20;2.00;;;;;;;;;;5031004;28;20199;-33
2023/05/13 00:53:34;;;;;;;1.87;1.77;;;;;;;;;;5030377;28;20213;-30
2023/05/13 00:56:01;;;;;;;1.90;1.80;;;;;;;;;;5017499;28;20227;-30
2023/05/13 00:58:29;;;;;;;1.80;1.70;;;;;;;;;;5020308;28;20204;-32
2023/05/13 01:01:01;;;;;;;1.53;1.43;;;;;;;;;;5009376;28;20206;-31
2023/05/13 01:03:32;;;;;;;1.60;1.50;;;;;;;;;;5018534;28;20209;-33
2023/05/13 01:06:01;;;;;;;1.70;1.60;;;;;;;;;;5008814;28;20598;-32
2023/05/13 01:08:32;;;;;;;2.47;1.47;;;;;;;;;;5008697;28;20215;-33
2023/05/13 01:11:01;;;;;;;2.20;1.60;;;;;;;;;;5020618;28;20220;-34
2023/05/13 01:13:32;;;;;;;2.50;1.57;;;;;;;;;;5021930;28;20201;-33
2023/05/13 01:16:02;;;;;;;1.87;1.73;;;;;;;;;;5012326;28;20235;-33
2023/05/13 01:18:32;;;;;;;1.50;1.40;;;;;;;;;;5020084;28;20208;-34
2023/05/13 01:21:01;;;;;;;1.80;1.67;;;;;;;;;;5029700;28;20220;-30
2023/05/13 01:23:30;;;;;;;5.70;1.90;;;;;;;;;;5030156;28;20214;-34
2023/05/13 01:25:57;;;;;;;2.73;1.70;;;;;;;;;;5016456;28;20677;-29
2023/05/13 01:28:24;;;;;;;2.37;1.50;;;;;;;;;;5023166;28;20204;-30
2023/05/13 01:30:51;;;;;;;1.63;1.53;;;;;;;;;;5012398;28;20207;-30
2023/05/13 01:33:18;;;;;;;1.70;1.60;;;;;;;;;;5013207;28;20198;-32
2023/05/13 01:35:46;;;;;;;4.37;1.73;;;;;;;;;;5027473;28;20218;-29
2023/05/13 01:38:15;;;;;;;2.97;1.70;;;;;;;;;;5019700;28;20213;-30
2023/05/13 01:40:43;;;;;;;3.37;1.73;;;;;;;;;;5028546;28;20208;-32
2023/05/13 01:43:10;;;;;;;2.00;1.60;;;;;;;;;;5010260;28;20200;-34
2023/05/13 01:45:37;;;;;;;2.00;1.90;;;;;;;;;;5010868;28;20245;-33
2023/05/13 01:48:05;;;;;;;1.87;1.40;;;;;;;;;;5025015;28;20286;-33
2023/05/13 01:50:32;;;;;;;1.70;1.60;;;;;;;;;;5025816;28;20227;-34
2023/05/13 01:52:59;;;;;;;2.00;1.90;;;;;;;;;;5029999;28;20213;-32
2023/05/13 01:55:26;;;;;;;2.37;1.60;;;;;;;;;;5022186;28;20219;-33
2023/05/13 01:57:55;;;;;;;1.60;1.50;;;;;;;;;;5024015;28;20234;-33
2023/05/13 02:00:23;;;;;;;3.77;1.67;;;;;;;;;;5017971;28;20644;-33
2023/05/13 02:02:50;;;;;;;2.57;1.70;;;;;;;;;;5019360;28;20209;-34
2023/05/13 02:05:17;;;;;;;2.50;1.73;;;;;;;;;;5009419;28;20223;-33
2023/05/13 02:07:44;;;;;;;1.80;1.70;;;;;;;;;;5010206;28;20290;-32
2023/05/13 02:10:12;;;;;;;2.67;1.40;;;;;;;;;;5012816;28;20641;-32
2023/05/13 02:12:39;;;;;;;1.83;1.67;;;;;;;;;;5021965;28;20667;-33
2023/05/13 02:15:08;;;;;;;1.73;1.60;;;;;;;;;;5011040;28;20200;-34
2023/05/13 02:17:35;;;;;;;2.03;1.37;;;;;;;;;;5018187;28;20231;-29
2023/05/13 02:20:02;;;;;;;1.63;1.53;;;;;;;;;;5009925;28;20564;-32
2023/05/13 02:22:29;;;;;;;2.17;1.70;;;;;;;;;;5010049;28;20213;-32
2023/05/13 02:24:57;;;;;;;1.87;1.77;;;;;;;;;;5009552;28;20231;-32
2023/05/13 02:27:24;;;;;;;2.07;1.57;;;;;;;;;;5021094;28;20252;-31
2023/05/13 02:29:51;;;;;;;2.50;1.70;;;;;;;;;;5009783;28;20223;-30
2023/05/13 02:32:20;;;;;;;1.93;1.83;;;;;;;;;;5016637;28;20211;-29
2023/05/13 02:34:47;;;;;;;1.67;1.57;;;;;;;;;;5028646;28;20660;-30
2023/05/13 02:37:14;;;;;;;1.80;1.70;;;;;;;;;;5029667;28;20213;-33
2023/05/13 02:39:41;;;;;;;3.37;1.60;;;;;;;;;;5024015;28;20209;-31
2023/05/13 02:42:08;;;;;;;1.53;1.40;;;;;;;;;;5012659;28;20199;-33
2023/05/13 02:44:35;;;;;;;1.30;1.20;;;;;;;;;;5007442;28;20237;-32
2023/05/13 02:47:02;;;;;;;1.67;1.57;;;;;;;;;;5023443;28;20219;-34
2023/05/13 02:49:31;;;;;;;1.50;1.40;;;;;;;;;;5009314;28;20201;-31
2023/05/13 02:51:58;;;;;;;1.93;1.70;;;;;;;;;;5009472;28;20219;-32
2023/05/13 02:54:25;;;;;;;1.70;1.60;;;;;;;;;;5011345;28;20218;-31
2023/05/13 02:56:52;;;;;;;1.80;1.70;;;;;;;;;;5019371;28;20235;-32
2023/05/13 02:59:19;;;;;;;1.60;1.50;;;;;;;;;;5026911;28;20219;-33
2023/05/13 03:01:46;;;;;;;1.87;1.37;;;;;;;;;;5018632;28;20203;-31
2023/05/13 03:04:13;;;;;;;1.50;1.40;;;;;;;;;;5018590;28;20204;-32
2023/05/13 03:06:42;;;;;;;2.30;1.60;;;;;;;;;;5012651;28;20235;-31
2023/05/13 03:09:09;;;;;;;2.93;1.27;;;;;;;;;;5011326;28;20203;-30
2023/05/13 03:11:36;;;;;;;2.00;1.63;;;;;;;;;;5019356;28;20204;-33
2023/05/13 03:14:03;;;;;;;3.33;1.60;;;;;;;;;;5023994;28;20210;-32
2023/05/13 03:16:30;;;;;;;1.60;1.50;;;;;;;;;;5020456;28;20211;-33
2023/05/13 03:18:57;;;;;;;1.53;1.43;;;;;;;;;;5024041;28;20194;-36
2023/05/13 03:21:24;;;;;;;1.43;1.33;;;;;;;;;;5032618;28;20204;-32
2023/05/13 03:23:52;;;;;;;2.17;1.70;;;;;;;;;;5020582;28;20222;-33
2023/05/13 03:26:20;;;;;;;1.60;1.37;;;;;;;;;;5019927;28;20627;-34
2023/05/13 03:28:47;;;;;;;2.93;1.50;;;;;;;;;;5020213;28;20201;-30
2023/05/13 03:31:14;;;;;;;2.07;1.60;;;;;;;;;;5013336;28;20212;-32
2023/05/13 03:33:41;;;;;;;1.80;1.37;;;;;;;;;;5014297;28;20223;-30
2023/05/13 03:36:09;;;;;;;1.60;1.50;;;;;;;;;;5031611;28;20228;-30
2023/05/13 03:38:36;;;;;;;2.13;1.30;;;;;;;;;;5020697;28;20219;-33
2023/05/13 03:41:04;;;;;;;1.70;1.60;;;;;;;;;;5023574;28;20707;-33
2023/05/13 03:43:31;;;;;;;2.33;1.67;;;;;;;;;;5023696;28;20206;-34
2023/05/13 03:45:58;;;;;;;1.83;1.73;;;;;;;;;;5020052;28;20234;-32
2023/05/13 03:48:25;;;;;;;1.70;1.60;;;;;;;;;;5026793;28;20210;-31
2023/05/13 03:50:52;;;;;;;1.70;1.60;;;;;;;;;;5031469;28;20200;-30
2023/05/13 03:53:20;;;;;;;1.50;1.40;;;;;;;;;;5025200;28;20214;-32
2023/05/13 03:55:47;;;;;;;1.50;1.40;;;;;;;;;;5026015;28;20712;-33
2023/05/13 03:58:16;;;;;;;1.97;1.80;;;;;;;;;;5025283;28;20225;-32
2023/05/13 04:00:45;;;;;;;3.60;1.60;;;;;;;;;;5023273;28;20202;-34
2023/05/13 04:03:12;;;;;;;2.13;1.77;;;;;;;;;;5019388;28;20565;-32
2023/05/13 04:05:39;;;;;;;1.80;1.70;;;;;;;;;;5028231;28;20237;-30
2023/05/13 04:08:06;;;;;;;2.33;1.50;;;;;;;;;;5031852;28;20217;-34
2023/05/13 04:10:33;;;;;;;1.70;1.60;;;;;;;;;;5015621;28;20199;-31
2023/05/13 04:13:00;;;;;;;2.60;1.63;;;;;;;;;;5022354;28;20213;-30
2023/05/13 04:15:30;;;;;;;5.23;1.37;;;;;;;;;;5016014;28;20230;-31
2023/05/13 04:17:57;;;;;;;2.07;1.53;;;;;;;;;;5023914;28;20777;-32
2023/05/13 04:20:24;;;;;;;2.40;1.63;;;;;;;;;;5028990;28;20202;-32
2023/05/13 04:22:51;;;;;;;2.47;1.40;;;;;;;;;;5033802;28;20224;-30
2023/05/13 04:25:18;;;;;;;2.60;1.53;;;;;;;;;;5025275;28;20227;-33
2023/05/13 04:27:46;;;;;;;2.03;1.93;;;;;;;;;;5019641;28;20207;-30
2023/05/13 04:30:13;;;;;;;1.60;1.50;;;;;;;;;;5028801;28;20199;-31
2023/05/13 04:32:42;;;;;;;1.73;1.63;;;;;;;;;;5022157;28;20215;-30
2023/05/13 04:35:10;;;;;;;2.27;2.07;;;;;;;;;;5033174;28;20273;-34
2023/05/13 04:37:37;;;;;;;1.70;1.60;;;;;;;;;;5033778;28;20212;-29
2023/05/13 04:40:04;;;;;;;1.80;1.70;;;;;;;;;;5028081;28;20199;-30
2023/05/13 04:42:31;;;;;;;2.13;1.93;;;;;;;;;;5029902;28;20588;-32
2023/05/13 04:44:58;;;;;;;3.93;2.80;;;;;;;;;;5026336;28;20206;-29
2023/05/13 04:47:26;;;;;;;2.10;1.90;;;;;;;;;;5028716;28;20194;-30
2023/05/13 04:49:54;;;;;;;2.03;1.93;;;;;;;;;;5033191;28;20205;-32
2023/05/13 04:52:21;;;;;;;2.37;2.17;;;;;;;;;;5033143;28;20210;-31
2023/05/13 04:54:48;;;;;;;4.70;2.27;;;;;;;;;;5014252;28;20492;-31
2023/05/13 04:57:16;;;;;;;2.90;1.73;;;;;;;;;;5024390;28;20190;-31
2023/05/13 04:59:43;;;;;;;1.93;1.83;;;;;;;;;;5028689;28;20218;-32
2023/05/13 05:02:10;;;;;;;2.03;1.90;;;;;;;;;;5026015;28;20202;-31
2023/05/13 05:04:37;;;;;;;2.00;1.90;;;;;;;;;;5032375;28;20198;-33
2023/05/13 05:07:06;;;;;;;1.67;1.57;;;;;;;;;;5033158;28;20248;-32
2023/05/13 05:09:33;;;;;;;1.73;1.63;;;;;;;;;;5018519;28;20232;-30
2023/05/13 05:12:00;;;;;;;1.70;1.60;;;;;;;;;;5024080;28;20194;-29
2023/05/13 05:14:27;;;;;;;2.10;2.00;;;;;;;;;;5015700;28;20223;-30
2023/05/13 05:16:54;;;;;;;3.03;1.83;;;;;;;;;;5019997;28;20218;-34
2023/05/13 05:19:22;;;;;;;2.07;1.87;;;;;;;;;;5012849;28;20225;-29
2023/05/13 05:21:50;;;;;;;1.90;1.70;;;;;;;;;;5013317;28;20207;-32
2023/05/13 05:24:18;;;;;;;2.57;1.87;;;;;;;;;;5015228;28;20195;-31
2023/05/13 05:26:45;;;;;;;2.20;2.10;;;;;;;;;;5023512;28;20231;-33
2023/05/13 05:29:12;;;;;;;2.13;1.93;;;;;;;;;;5024257;28;20199;-30
2023/05/13 05:31:39;;;;;;;1.80;1.70;;;;;;;;;;5019864;28;20221;-31
2023/05/13 05:34:07;;;;;;;2.27;2.03;;;;;;;;;;5027616;28;20200;-32
2023/05/13 05:36:34;;;;;;;2.43;2.17;;;;;;;;;;5012873;28;20230;-30
2023/05/13 05:39:01;;;;;;;1.83;1.70;;;;;;;;;;5013894;28;20195;-31
2023/05/13 05:41:30;;;;;;;4.20;2.00;;;;;;;;;;5018835;28;20203;-33
2023/05/13 05:43:57;;;;;;;2.27;2.00;;;;;;;;;;5012674;28;20215;-31
2023/05/13 05:46:24;;;;;;;2.90;2.10;;;;;;;;;;5014837;28;20223;-30
2023/05/13 05:48:51;;;;;;;3.17;2.30;;;;;;;;;;5023775;28;20206;-34
2023/05/13 05:51:18;;;;;;;3.13;2.00;;;;;;;;;;5032565;28;20210;-34
2023/05/13 05:53:45;;;;;;;3.47;2.43;;;;;;;;;;5020868;28;20208;-32
2023/05/13 05:56:12;;;;;;;2.60;2.40;;;;;;;;;;5014611;28;20318;-32
2023/05/13 05:58:41;;;;;;;2.10;1.90;;;;;;;;;;5011946;28;20209;-32
2023/05/13 06:01:09;;;;;;;3.77;1.90;;;;;;;;;;5012345;28;20309;-34
2023/05/13 06:03:36;;;;;;;2.57;2.37;;;;;;;;;;5019243;28;20205;-32
2023/05/13 06:06:03;;;;;;;2.27;2.07;;;;;;;;;;5031769;28;20235;-31
2023/05/13 06:08:31;;;;;;;2.87;2.60;;;;;;;;;;5028482;28;20629;-31
2023/05/13 06:10:58;;;;;;;2.23;2.13;;;;;;;;;;5026528;28;20472;-30
2023/05/13 06:13:26;;;;;;;3.97;2.20;;;;;;;;;;5115043;22;20253;-27
2023/05/13 06:15:54;;;;;;;3.17;2.00;;;;;;;;;;5048152;28;20233;-29
2023/05/13 06:18:21;;;;;;;2.23;2.00;;;;;;;;;;5058423;28;20209;-27
2023/05/13 06:20:48;;;;;;;2.13;1.90;;;;;;;;;;5052139;28;20206;-28
2023/05/13 06:23:15;;;;;;;2.57;2.37;;;;;;;;;;5051365;28;20199;-28
2023/05/13 06:25:42;;;;;;;2.47;2.27;;;;;;;;;;5045706;28;20228;-25
2023/05/13 06:28:11;;;;;;;3.57;2.17;;;;;;;;;;5049408;28;20193;-26
2023/05/13 06:30:38;;;;;;;1.80;1.70;;;;;;;;;;5043536;28;20289;-28
2023/05/13 06:33:09;;;;;;;2.23;2.10;;;;;;;;;;5063655;28;20201;-27
2023/05/13 06:35:36;;;;;;;2.40;2.20;;;;;;;;;;5073660;28;20286;-29
2023/05/13 06:38:03;;;;;;;2.30;2.00;;;;;;;;;;5075741;28;20201;-27
2023/05/13 06:40:31;;;;;;;4.90;2.40;;;;;;;;;;5046981;28;20204;-27
2023/05/13 06:42:58;;;;;;;2.43;2.20;;;;;;;;;;5057878;28;20196;-26
2023/05/13 06:45:25;;;;;;;2.43;2.20;;;;;;;;;;5057644;28;20242;-28
2023/05/13 06:47:52;;;;;;;2.43;2.23;;;;;;;;;;5063776;28;20206;-28
2023/05/13 06:50:20;;;;;;;3.17;2.80;;;;;;;;;;5075951;28;20223;-26
2023/05/13 06:52:48;;;;;;;2.90;2.20;;;;;;;;;;5075536;28;20205;-26
2023/05/13 06:55:17;;;;;;;2.20;2.00;;;;;;;;;;5057732;28;20214;-27
2023/05/13 06:57:45;;;;;;;2.77;2.40;;;;;;;;;;5058097;28;20193;-30
2023/05/13 07:00:13;;;;;;;2.47;2.10;;;;;;;;;;5048644;28;20198;-29
2023/05/13 07:02:40;;;;;;;3.13;2.60;;;;;;;;;;5065907;28;20218;-26
2023/05/13 07:05:08;;;;;;;2.73;2.53;;;;;;;;;;5074884;28;20223;-29
2023/05/13 07:07:36;;;;;;;3.70;2.93;;;;;;;;;;5074521;28;20224;-28
2023/05/13 07:10:03;;;;;;;2.53;2.33;;;;;;;;;;5038475;28;20202;-28
2023/05/13 07:12:31;;;;;;;4.30;3.10;;;;;;;;;;5058294;28;20262;-30
2023/05/13 07:14:58;;;;;;;3.33;2.70;;;;;;;;;;5050778;28;20201;-28
2023/05/13 07:17:25;;;;;;;4.53;2.40;;;;;;;;;;5061569;28;20202;-27
2023/05/13 07:19:53;;;;;;;3.53;3.23;;;;;;;;;;5074900;28;20199;-27
2023/05/13 07:22:20;;;;;;;4.17;2.93;;;;;;;;;;5075351;28;20240;-28
2023/05/13 07:24:48;;;;;;;3.13;2.53;;;;;;;;;;5060913;28;20204;-28
2023/05/13 07:27:15;;;;;;;4.70;3.27;;;;;;;;;;5049294;28;20222;-29
2023/05/13 07:29:42;;;;;;;3.70;2.80;;;;;;;;;;5057069;28;20210;-24
2023/05/13 07:32:09;;;;;;;3.40;3.10;;;;;;;;;;5056554;28;20207;-28
2023/05/13 07:34:37;;;;;;;3.30;2.87;;;;;;;;;;5065524;28;20220;-26
2023/05/13 07:37:04;;;;;;;3.97;2.80;;;;;;;;;;5074324;28;20231;-26
2023/05/13 07:39:31;;;;;;;3.43;2.87;;;;;;;;;;5046797;28;20206;-27
2023/05/13 07:41:59;;;;;;;2.07;1.80;;;;;;;;;;5062093;28;20198;-28
2023/05/13 07:44:27;;;;;;;3.60;2.60;;;;;;;;;;5051272;28;20236;-29
2023/05/13 07:46:54;;;;;;;2.93;2.73;;;;;;;;;;5047164;28;20233;-30
2023/05/13 07:49:21;;;;;;;2.60;2.40;;;;;;;;;;5068762;28;20638;-30
2023/05/13 07:51:48;;;;;;;2.97;2.63;;;;;;;;;;5074788;28;20205;-31
2023/05/13 07:54:15;;;;;;;3.40;3.07;;;;;;;;;;5061814;28;20230;-27
2023/05/13 07:56:45;;;;;;;3.17;2.87;;;;;;;;;;5066160;28;20223;-28
2023/05/13 07:59:13;;;;;;;3.37;2.80;;;;;;;;;;5067691;28;20243;-28
2023/05/13 08:01:40;;;;;;;3.23;2.90;;;;;;;;;;5045177;28;20213;-27
2023/05/13 08:04:08;;;;;;;3.20;2.70;;;;;;;;;;5061249;28;20186;-29
2023/05/13 08:06:35;;;;;;;5.50;4.30;;;;;;;;;;5054090;28;20227;-30
2023/05/13 08:09:02;;;;;;;8.70;4.17;;;;;;;;;;5044972;28;20194;-29
2023/05/13 08:11:29;;;;;;;3.00;2.70;;;;;;;;;;5069829;28;20217;-27
2023/05/13 08:13:57;;;;;;;4.93;4.43;;;;;;;;;;5053904;28;20208;-30
2023/05/13 08:16:25;;;;;;;4.43;2.70;;;;;;;;;;5053942;28;20219;-30
2023/05/13 08:18:52;;;;;;;3.10;2.17;;;;;;;;;;5055042;28;20419;-26
2023/05/13 08:21:19;;;;;;;2.57;2.37;;;;;;;;;;5073390;28;20335;-27
2023/05/13 08:23:47;;;;;;;3.83;2.40;;;;;;;;;;5070747;28;20209;-29
2023/05/13 08:26:14;;;;;;;3.43;2.83;;;;;;;;;;5044691;28;20228;-25
2023/05/13 08:28:41;;;;;;;5.23;2.20;;;;;;;;;;5058772;28;20208;-29
2023/05/13 08:31:08;;;;;;;2.50;2.30;;;;;;;;;;5049654;28;20229;-28
2023/05/13 08:33:36;;;;;;;2.30;2.17;;;;;;;;;;5071325;28;20199;-26
2023/05/13 08:36:04;;;;;;;2.00;1.90;;;;;;;;;;5071982;28;20225;-28
2023/05/13 08:38:32;;;;;;;2.37;2.17;;;;;;;;;;5073542;28;20201;-27
2023/05/13 08:40:59;;;;;;;2.30;2.10;;;;;;;;;;5054992;28;20203;-27
2023/05/13 08:43:29;;;;;;;2.63;2.43;;;;;;;;;;5061454;28;20194;-26
2023/05/13 08:45:57;;;;;;;2.40;2.20;;;;;;;;;;5054486;28;20221;-30
2023/05/13 08:48:25;;;;;;;2.13;2.03;;;;;;;;;;5053447;28;20220;-25
2023/05/13 08:50:53;;;;;;;3.60;2.00;;;;;;;;;;5071889;28;20209;-29
2023/05/13 08:53:21;;;;;;;2.40;2.20;;;;;;;;;;5061228;28;20205;-27
2023/05/13 08:55:49;;;;;;;2.23;2.10;;;;;;;;;;5056963;28;20221;-28
2023/05/13 08:58:16;;;;;;;3.37;2.47;;;;;;;;;;5066131;28;20197;-27
2023/05/13 09:00:43;;;;;;;2.60;2.40;;;;;;;;;;5049304;28;20203;-27
2023/05/13 09:03:11;;;;;;;2.57;2.00;;;;;;;;;;5066519;28;20258;-30
2023/05/13 09:05:38;;;;;;;2.23;2.13;;;;;;;;;;5052597;28;20234;-26
2023/05/13 09:08:08;;;;;;;2.20;2.00;;;;;;;;;;5049316;28;20250;-26
2023/05/13 09:10:35;;;;;;;2.43;2.13;;;;;;;;;;5045288;28;20199;-30
2023/05/13 09:13:02;;;;;;;3.20;2.37;;;;;;;;;;5064097;28;20202;-25
2023/05/13 09:15:30;;;;;;;1.97;1.77;;;;;;;;;;5058938;28;20226;-28
2023/05/13 09:17:59;;;;;;;2.60;1.90;;;;;;;;;;5053239;28;20206;-25
2023/05/13 09:20:26;;;;;;;2.30;2.10;;;;;;;;;;5072039;28;20204;-27
2023/05/13 09:22:55;;;;;;;2.00;1.80;;;;;;;;;;5060102;28;20206;-30
2023/05/13 09:25:24;;;;;;;1.97;1.87;;;;;;;;;;5051075;28;20721;-29
2023/05/13 09:27:52;;;;;;;2.00;1.90;;;;;;;;;;5061920;28;20217;-28
2023/05/13 09:30:20;;;;;;;2.97;2.07;;;;;;;;;;5045674;28;20207;-29
2023/05/13 09:33:04;;;;;;;2.90;2.43;;;;;;;;;;5055197;28;20213;-25
2023/05/13 09:35:31;;;;;;;2.97;1.80;;;;;;;;;;5052361;28;20220;-27
2023/05/13 09:37:59;;;;;;;2.20;2.00;;;;;;;;;;5053012;28;20203;-30
2023/05/13 09:40:27;;;;;;;3.17;1.90;;;;;;;;;;5046753;28;20190;-28
2023/05/13 09:42:58;;;;;;;3.63;1.93;;;;;;;;;;5051292;28;20198;-27
2023/05/13 09:45:27;;;;;;;1.70;1.60;;;;;;;;;;5048652;28;20244;-29
2023/05/13 09:47:56;;;;;;;2.10;1.90;;;;;;;;;;5066749;28;20220;-29
2023/05/13 09:50:23;;;;;;;2.03;1.93;;;;;;;;;;5057403;28;20649;-28
2023/05/13 09:52:50;;;;;;;3.40;1.60;;;;;;;;;;5052173;28;20207;-25
2023/05/13 09:55:18;;;;;;;2.73;1.90;;;;;;;;;;5047959;28;20728;-29
2023/05/13 09:57:47;;;;;;;1.93;1.80;;;;;;;;;;5068582;28;20208;-28
2023/05/13 10:00:14;;;;;;;4.40;2.20;;;;;;;;;;5047302;28;20207;-27
2023/05/13 10:02:42;;;;;;;1.90;1.80;;;;;;;;;;5057681;28;20204;-28
2023/05/13 10:05:09;;;;;;;1.80;1.70;;;;;;;;;;5051766;28;20228;-28
2023/05/13 10:07:37;;;;;;;1.70;1.60;;;;;;;;;;5051961;28;20308;-29
2023/05/13 10:10:05;;;;;;;1.67;1.57;;;;;;;;;;5044417;28;20200;-27
2023/05/13 10:12:35;;;;;;;1.60;1.50;;;;;;;;;;5046061;28;20201;-29
2023/05/13 10:15:03;;;;;;;1.67;1.57;;;;;;;;;;5053559;28;20237;-29
2023/05/13 10:17:30;;;;;;;2.90;1.67;;;;;;;;;;5055879;28;20205;-28
2023/05/13 10:19:58;;;;;;;3.43;2.00;;;;;;;;;;5050647;28;20211;-27
2023/05/13 10:22:28;;;;;;;1.90;1.80;;;;;;;;;;5052212;28;20207;-25
2023/05/13 10:24:55;;;;;;;1.83;1.73;;;;;;;;;;5049054;28;20275;-29
2023/05/13 10:27:25;;;;;;;1.80;1.70;;;;;;;;;;5058324;28;20228;-27
2023/05/13 10:29:54;;;;;;;3.53;2.10;;;;;;;;;;5049681;28;20203;-28
2023/05/13 10:32:24;;;;;;;4.43;2.00;;;;;;;;;;5052338;28;20198;-28
2023/05/13 10:34:52;;;;;;;1.83;1.73;;;;;;;;;;5061125;28;20200;-28
2023/05/13 10:37:49;;;;;;;2.17;2.07;;;;;;;;;;5051619;28;20248;-30
2023/05/13 10:40:34;;;;;;;1.80;1.70;;;;;;;;;;5053872;28;20202;-29
2023/05/13 10:43:10;;;;;;;2.87;1.70;;;;;;;;;;5053198;28;20205;-29
2023/05/13 10:45:37;;;;;;;1.83;1.73;;;;;;;;;;5053043;28;20228;-27
2023/05/13 10:48:07;;;;;;;1.90;1.80;;;;;;;;;;5056027;28;20228;-26
2023/05/13 10:50:37;;;;;;;1.80;1.70;;;;;;;;;;5052008;28;20197;-29
2023/05/13 10:53:08;;;;;;;1.80;1.70;;;;;;;;;;5045644;28;20202;-30
2023/05/13 10:55:41;;;;;;;1.50;1.40;;;;;;;;;;5049119;28;20221;-29
2023/05/13 10:58:09;;;;;;;1.80;1.70;;;;;;;;;;5044032;28;20550;-27
2023/05/13 11:00:37;;;;;;;2.57;1.97;;;;;;;;;;5041990;28;20199;-30
2023/05/13 11:03:16;;;;;;;1.77;1.67;;;;;;;;;;5069129;28;20210;-30
2023/05/13 11:05:45;;;;;;;3.47;1.70;;;;;;;;;;5071165;28;20231;-26
2023/05/13 11:08:13;;;;;;;2.00;1.90;;;;;;;;;;5067442;28;20214;-28
2023/05/13 11:10:41;;;;;;;1.80;1.70;;;;;;;;;;5053231;28;20203;-28
2023/05/13 11:13:23;;;;;;;1.73;1.63;;;;;;;;;;5062288;28;20194;-28
2023/05/13 11:15:51;;;;;;;2.90;2.40;;;;;;;;;;5052685;28;20226;-29
2023/05/13 11:18:20;;;;;;;2.23;1.77;;;;;;;;;;5051188;28;20208;-29
2023/05/13 11:20:48;;;;;;;2.17;2.00;;;;;;;;;;5069430;28;20201;-28
2023/05/13 11:23:19;;;;;;;2.50;2.30;;;;;;;;;;5066887;28;20210;-28
2023/05/13 11:25:46;;;;;;;2.50;2.17;;;;;;;;;;5042420;28;20260;-27
2023/05/13 11:28:17;;;;;;;2.17;1.60;;;;;;;;;;5072720;28;20227;-28
2023/05/13 11:30:54;;;;;;;2.43;2.07;;;;;;;;;;5057131;28;20237;-28
2023/05/13 11:33:23;;;;;;;2.10;2.00;;;;;;;;;;5065110;28;20196;-29
2023/05/13 11:35:56;;;;;;;1.70;1.60;;;;;;;;;;5054110;28;20218;-26
2023/05/13 11:38:24;;;;;;;1.67;1.47;;;;;;;;;;5053840;28;20194;-31
2023/05/13 11:40:51;;;;;;;1.93;1.77;;;;;;;;;;5055203;28;20284;-27
2023/05/13 11:43:21;;;;;;;1.80;1.60;;;;;;;;;;5068566;28;20223;-29
2023/05/13 11:45:48;;;;;;;3.77;1.60;;;;;;;;;;5049389;28;20280;-27
2023/05/13 11:48:19;;;;;;;2.10;1.90;;;;;;;;;;5058004;28;20266;-30
2023/05/13 11:50:47;;;;;;;1.70;1.60;;;;;;;;;;5057030;28;20205;-26
2023/05/13 11:53:19;;;;;;;1.53;1.43;;;;;;;;;;5054626;28;20216;-28
2023/05/13 11:55:46;;;;;;;2.23;2.00;;;;;;;;;;5052749;28;20574;-30
2023/05/13 11:58:14;;;;;;;1.97;1.80;;;;;;;;;;5062603;28;20208;-25
2023/05/13 12:00:41;;;;;;;1.90;1.80;;;;;;;;;;5051972;28;20265;-26
2023/05/13 12:03:10;;;;;;;1.90;1.63;;;;;;;;;;5067598;28;20202;-30
2023/05/13 12:05:37;;;;;;;1.73;1.63;;;;;;;;;;5053839;28;20218;-28
2023/05/13 12:08:07;;;;;;;1.87;1.77;;;;;;;;;;5049275;28;20800;-26
2023/05/13 12:10:34;;;;;;;2.10;1.90;;;;;;;;;;5048057;28;20209;-30
2023/05/13 12:13:02;;;;;;;2.00;1.90;;;;;;;;;;5065907;28;20208;-27
2023/05/13 12:15:30;;;;;;;2.23;1.80;;;;;;;;;;5322708;22;20217;-32
2023/05/13 12:17:58;;;;;;;1.67;1.57;;;;;;;;;;5046098;28;20321;-33
2023/05/13 12:20:25;;;;;;;1.97;1.87;;;;;;;;;;5059008;28;20288;-31
2023/05/13 12:22:55;;;;;;;1.80;1.70;;;;;;;;;;5053773;28;20206;-31
2023/05/13 12:25:40;;;;;;;1.80;1.57;;;;;;;;;;5048223;28;20218;-35
2023/05/13 12:28:07;;;;;;;2.13;1.77;;;;;;;;;;5050469;28;20209;-29
2023/05/13 12:30:35;;;;;;;1.90;1.70;;;;;;;;;;5055708;28;20255;-29
2023/05/13 12:33:03;;;;;;;2.80;1.90;;;;;;;;;;5050623;28;20223;-32
2023/05/13 12:35:30;;;;;;;1.80;1.70;;;;;;;;;;5057833;28;20225;-32
2023/05/13 12:38:02;;;;;;;2.73;2.53;;;;;;;;;;5051706;28;20209;-32
2023/05/13 12:40:29;;;;;;;2.23;2.07;;;;;;;;;;5036662;28;20293;-33
2023/05/13 12:43:01;;;;;;;2.07;1.97;;;;;;;;;;5061257;28;20213;-34
2023/05/13 12:45:29;;;;;;;2.83;2.30;;;;;;;;;;5057400;28;20231;-32
2023/05/13 12:47:56;;;;;;;2.77;2.03;;;;;;;;;;5058558;28;20225;-30
2023/05/13 12:50:23;;;;;;;2.50;2.30;;;;;;;;;;5066124;28;20200;-31
2023/05/13 12:52:51;;;;;;;2.10;2.00;;;;;;;;;;5071725;28;20208;-32
2023/05/13 12:55:18;;;;;;;3.40;1.87;;;;;;;;;;5041666;28;20248;-33
2023/05/13 12:57:55;;;;;;;2.20;2.10;;;;;;;;;;5058639;28;20194;-32
2023/05/13 13:00:23;;;;;;;2.07;1.97;;;;;;;;;;5055238;28;20195;-30
2023/05/13 13:02:52;;;;;;;4.50;2.10;;;;;;;;;;5051158;28;20205;-32
2023/05/13 13:05:20;;;;;;;2.27;2.03;;;;;;;;;;5067273;28;20247;-30
2023/05/13 13:07:47;;;;;;;1.93;1.83;;;;;;;;;;5073452;28;20221;-30
2023/05/13 13:10:14;;;;;;;2.50;2.30;;;;;;;;;;5048756;28;20199;-30
2023/05/13 13:12:41;;;;;;;1.97;1.87;;;;;;;;;;5051305;28;20304;-32
2023/05/13 13:15:09;;;;;;;5.70;2.20;;;;;;;;;;5047772;28;20228;-32
2023/05/13 13:17:37;;;;;;;2.40;2.20;;;;;;;;;;5049833;28;20198;-29
2023/05/13 13:20:05;;;;;;;3.67;2.17;;;;;;;;;;5045326;28;20211;-32
2023/05/13 13:22:35;;;;;;;2.60;2.40;;;;;;;;;;5050996;28;20249;-30
2023/05/13 13:25:02;;;;;;;2.30;2.20;;;;;;;;;;5055989;28;20249;-32
2023/05/13 13:27:30;;;;;;;3.30;2.20;;;;;;;;;;5065158;28;20204;-29
2023/05/13 13:29:57;;;;;;;2.60;2.40;;;;;;;;;;5050906;28;20244;-29
2023/05/13 13:32:24;;;;;;;2.77;2.13;;;;;;;;;;5054159;28;20764;-29
2023/05/13 13:34:52;;;;;;;3.60;2.40;;;;;;;;;;5050733;28;20198;-30
2023/05/13 13:37:19;;;;;;;2.37;2.17;;;;;;;;;;5051948;28;20228;-31
2023/05/13 13:39:47;;;;;;;2.60;2.40;;;;;;;;;;5047246;28;20201;-33
2023/05/13 13:42:14;;;;;;;4.10;2.60;;;;;;;;;;5041053;28;20198;-30
2023/05/13 13:44:41;;;;;;;2.50;2.30;;;;;;;;;;5056851;28;20210;-29
2023/05/13 13:47:09;;;;;;;2.33;2.13;;;;;;;;;;5054521;28;20218;-29
2023/05/13 13:49:36;;;;;;;4.20;3.07;;;;;;;;;;5064333;28;20218;-30
2023/05/13 13:52:05;;;;;;;3.00;2.70;;;;;;;;;;5072540;28;20207;-32
2023/05/13 13:54:32;;;;;;;2.53;2.33;;;;;;;;;;5046680;28;20214;-31
2023/05/13 13:56:59;;;;;;;2.53;2.33;;;;;;;;;;5052431;28;20235;-33
2023/05/13 13:59:26;;;;;;;2.70;2.50;;;;;;;;;;5063397;28;20528;-33
2023/05/13 14:01:54;;;;;;;3.13;2.30;;;;;;;;;;5049898;28;20207;-31
2023/05/13 14:04:22;;;;;;;2.93;2.73;;;;;;;;;;5072106;28;20196;-32
2023/05/13 14:06:50;;;;;;;2.97;2.40;;;;;;;;;;5071970;28;20709;-31
2023/05/13 14:09:18;;;;;;;8.50;3.67;;;;;;;;;;5060204;28;20301;-31
2023/05/13 14:11:45;;;;;;;5.10;3.23;;;;;;;;;;5062840;28;20251;-32
2023/05/13 14:14:13;;;;;;;2.33;2.17;;;;;;;;;;5065245;28;20204;-29
2023/05/13 14:16:40;;;;;;;2.70;2.50;;;;;;;;;;5047870;28;20231;-32
2023/05/13 14:19:07;;;;;;;2.60;2.40;;;;;;;;;;5063630;28;20189;-34
2023/05/13 14:21:34;;;;;;;3.47;2.63;;;;;;;;;;5072546;28;20200;-32
2023/05/13 14:24:01;;;;;;;2.33;2.20;;;;;;;;;;5061235;28;20195;-33
2023/05/13 14:26:30;;;;;;;3.70;2.80;;;;;;;;;;5058013;28;20222;-33
2023/05/13 14:28:57;;;;;;;3.30;2.60;;;;;;;;;;5071400;28;20221;-31
2023/05/13 14:31:24;;;;;;;3.07;2.87;;;;;;;;;;5044840;28;20198;-33
2023/05/13 14:33:51;;;;;;;3.53;2.97;;;;;;;;;;5058405;28;20226;-35
2023/05/13 14:36:20;;;;;;;4.37;2.73;;;;;;;;;;5051808;28;20218;-32
2023/05/13 14:38:47;;;;;;;4.37;3.00;;;;;;;;;;5043414;28;20285;-30
2023/05/13 14:41:18;;;;;;;2.90;2.67;;;;;;;;;;5066444;28;20202;-32
2023/05/13 14:43:46;;;;;;;4.60;2.97;;;;;;;;;;5069596;28;20227;-31
2023/05/13 14:46:14;;;;;;;3.43;3.13;;;;;;;;;;5045825;28;20217;-31
2023/05/13 14:48:41;;;;;;;3.70;2.87;;;;;;;;;;5058072;28;20225;-29